Time;durP1;ratioP1;P1;durP2;ratioP2;P2;SDS_P1;SDS_P2;PMS_P1;PMS_P2;Temp;Humidity;BMP_temperature;BMP_pressure;BME280_temperature;BME280_humidity;BME280_pressure;Samples;Min_cycle;Max_cycle;Signal;HPM_P1;HPM_P2
2023/08/16 00:01:54;;;;;;;0.20;0.00;;;;;;;16.73;100.00;101752.78;5091674;28;20506;-44
2023/08/16 00:04:19;;;;;;;0.10;0.10;;;;;;;16.62;100.00;101755.16;5092632;28;20372;-46
2023/08/16 00:06:45;;;;;;;0.03;0.03;;;;;;;16.69;100.00;101755.28;5092016;28;20490;-47
2023/08/16 00:09:10;;;;;;;0.10;0.10;;;;;;;16.66;100.00;101750.91;5091760;28;20028;-48
2023/08/16 00:11:35;;;;;;;0.00;0.00;;;;;;;16.65;100.00;101751.75;5092146;28;20020;-48
2023/08/16 00:14:01;;;;;;;0.10;0.10;;;;;;;16.71;100.00;101754.47;5092260;28;20020;-44
2023/08/16 00:16:26;;;;;;;0.03;0.03;;;;;;;16.76;100.00;101751.97;5091915;28;20073;-48
2023/08/16 00:18:52;;;;;;;0.10;0.10;;;;;;;16.71;100.00;101749.25;5096178;28;20022;-46
2023/08/16 00:21:17;;;;;;;0.08;0.08;;;;;;;16.77;100.00;101759.78;5096186;28;20031;-46
2023/08/16 00:23:43;;;;;;;0.00;0.00;;;;;;;16.85;100.00;101759.94;5094981;28;20058;-45
2023/08/16 00:26:08;;;;;;;0.03;0.03;;;;;;;16.84;100.00;101760.78;5096055;28;20073;-47
2023/08/16 00:28:33;;;;;;;0.00;0.00;;;;;;;16.79;100.00;101763.28;5095483;28;20024;-46
2023/08/16 00:30:59;;;;;;;0.03;0.03;;;;;;;16.76;100.00;101762.38;5094976;28;20031;-45
2023/08/16 00:33:24;;;;;;;0.10;0.10;;;;;;;16.73;100.00;101757.97;5095657;28;20551;-46
2023/08/16 00:35:51;;;;;;;0.00;0.00;;;;;;;16.68;100.00;101759.63;5095776;28;20416;-44
2023/08/16 00:38:17;;;;;;;0.10;0.10;;;;;;;16.68;100.00;101754.41;5094814;28;20387;-47
2023/08/16 00:40:47;;;;;;;0.00;0.00;;;;;;;16.60;100.00;101756.88;5095236;28;20486;-47
2023/08/16 00:43:12;;;;;;;0.00;0.00;;;;;;;16.56;100.00;101764.59;5095247;28;20059;-44
2023/08/16 00:45:38;;;;;;;0.10;0.10;;;;;;;16.52;100.00;101762.78;5094393;28;20071;-49
2023/08/16 00:48:04;;;;;;;0.00;0.00;;;;;;;16.43;100.00;101763.47;5095589;28;20116;-46
2023/08/16 00:50:30;;;;;;;0.00;0.00;;;;;;;16.35;100.00;101763.31;5095040;28;20051;-44
2023/08/16 00:52:55;;;;;;;0.00;0.00;;;;;;;16.36;100.00;101762.47;5094842;28;20066;-47
2023/08/16 00:55:21;;;;;;;0.00;0.00;;;;;;;16.34;100.00;101769.34;5095363;28;20028;-45
2023/08/16 00:57:48;;;;;;;0.03;0.03;;;;;;;16.26;100.00;101774.38;5094746;28;20032;-44
2023/08/16 01:00:14;;;;;;;0.00;0.00;;;;;;;16.24;100.00;101776.09;5094694;28;20059;-45
2023/08/16 01:02:39;;;;;;;0.00;0.00;;;;;;;16.20;100.00;101778.59;5095060;28;20062;-44
2023/08/16 01:05:06;;;;;;;0.00;0.00;;;;;;;16.22;100.00;101782.13;5094486;28;20380;-46
2023/08/16 01:07:31;;;;;;;0.00;0.00;;;;;;;16.11;100.00;101777.56;5094975;28;20031;-44
2023/08/16 01:09:56;;;;;;;0.10;0.10;;;;;;;15.99;100.00;101777.28;5095118;28;20024;-44
2023/08/16 01:12:36;;;;;;;0.00;0.00;;;;;;;15.95;100.00;101780.66;5094330;28;20024;-46
2023/08/16 01:15:37;;;;;;;0.00;0.00;;;;;;;15.95;100.00;101780.66;5095089;28;20111;-50
2023/08/16 01:18:04;;;;;;;0.00;0.00;;;;;;;15.76;100.00;101785.41;5051608;28;20209;-44
2023/08/16 01:20:31;;;;;;;0.10;0.10;;;;;;;15.74;100.00;101792.28;5093951;28;20464;-45
2023/08/16 01:23:07;;;;;;;0.00;0.00;;;;;;;15.74;100.00;101786.22;5094779;28;20092;-45
2023/08/16 01:26:05;;;;;;;0.00;0.00;;;;;;;15.85;100.00;101795.16;5094503;28;20032;-44
2023/08/16 01:28:32;;;;;;;0.00;0.00;;;;;;;15.80;100.00;101796.75;5093710;28;20039;-47
2023/08/16 01:31:03;;;;;;;0.10;0.10;;;;;;;15.82;100.00;101802.03;5094710;28;20032;-46
2023/08/16 01:33:28;;;;;;;0.00;0.00;;;;;;;15.82;100.00;101804.63;5093406;28;20020;-44
2023/08/16 01:35:53;;;;;;;0.00;0.00;;;;;;;15.84;100.00;101802.94;5095022;28;20036;-45
2023/08/16 01:38:19;;;;;;;0.00;0.00;;;;;;;15.94;100.00;101803.16;5094676;28;20028;-48
2023/08/16 01:40:55;;;;;;;0.05;0.05;;;;;;;15.93;100.00;101808.34;5093512;28;20081;-44
2023/08/16 01:43:20;;;;;;;0.00;0.00;;;;;;;15.95;100.00;101807.53;5094424;28;20028;-49
2023/08/16 01:45:49;;;;;;;0.00;0.00;;;;;;;15.99;100.00;101808.47;5093969;28;20024;-45
2023/08/16 01:48:15;;;;;;;0.10;0.10;;;;;;;15.98;100.00;101800.66;5093318;28;20472;-45
2023/08/16 01:50:41;;;;;;;0.10;0.10;;;;;;;16.00;100.00;101806.75;5094169;28;20021;-47
2023/08/16 01:53:07;;;;;;;0.00;0.00;;;;;;;16.05;100.00;101799.94;5093915;28;20054;-44
2023/08/16 01:55:32;;;;;;;0.10;0.10;;;;;;;16.01;100.00;101796.41;5093364;28;20028;-44
2023/08/16 01:57:57;;;;;;;0.10;0.10;;;;;;;15.95;100.00;101796.25;5094137;28;20376;-44
2023/08/16 02:00:23;;;;;;;0.10;0.10;;;;;;;15.86;100.00;101790.84;5093680;28;20035;-48
2023/08/16 02:02:48;;;;;;;0.00;0.00;;;;;;;15.83;100.00;101801.16;5093451;28;20039;-44
2023/08/16 02:05:14;;;;;;;0.00;0.00;;;;;;;15.77;100.00;101802.75;5093929;28;20030;-45
2023/08/16 02:07:39;;;;;;;0.10;0.10;;;;;;;15.75;100.00;101800.94;5093469;28;20063;-47
2023/08/16 02:10:05;;;;;;;0.00;0.00;;;;;;;15.77;100.00;101807.94;5093551;28;20024;-44
2023/08/16 02:12:30;;;;;;;0.10;0.10;;;;;;;15.80;100.00;101813.25;5093555;28;20047;-47
2023/08/16 02:14:55;;;;;;;0.10;0.10;;;;;;;15.94;100.00;101817.91;5093487;28;20357;-43
2023/08/16 02:17:21;;;;;;;0.00;0.00;;;;;;;15.93;100.00;101813.53;5093157;28;20380;-48
2023/08/16 02:19:47;;;;;;;0.10;0.10;;;;;;;15.90;100.00;101810.88;5093627;28;20379;-48
2023/08/16 02:22:12;;;;;;;0.10;0.10;;;;;;;15.89;100.00;101801.31;5093384;28;20492;-44
2023/08/16 02:24:38;;;;;;;0.00;0.00;;;;;;;15.84;100.00;101797.72;5093016;28;20032;-48
2023/08/16 02:27:03;;;;;;;0.10;0.10;;;;;;;15.79;100.00;101800.22;5093383;28;20039;-48
2023/08/16 02:29:28;;;;;;;0.00;0.00;;;;;;;15.80;100.00;101802.84;5092538;28;20028;-48
2023/08/16 02:31:54;;;;;;;0.08;0.08;;;;;;;15.80;100.00;101802.84;5093536;28;20472;-44
2023/08/16 02:34:19;;;;;;;0.00;0.00;;;;;;;15.80;100.00;101809.75;5093605;28;20020;-43
2023/08/16 02:36:44;;;;;;;0.00;0.00;;;;;;;15.80;100.00;101813.25;5092561;28;20043;-44
2023/08/16 02:39:10;;;;;;;0.10;0.10;;;;;;;15.81;100.00;101814.13;5093363;28;20541;-44
2023/08/16 02:41:35;;;;;;;0.10;0.10;;;;;;;15.80;100.00;101815.84;5092498;28;20384;-49
2023/08/16 02:44:01;;;;;;;0.00;0.00;;;;;;;15.80;100.00;101809.75;5092219;28;20040;-44
2023/08/16 02:46:26;;;;;;;0.10;0.10;;;;;;;15.81;100.00;101808.94;5092954;28;20021;-45
2023/08/16 02:48:51;;;;;;;0.10;0.10;;;;;;;15.79;100.00;101811.47;5093433;28;20066;-45
2023/08/16 02:51:16;;;;;;;0.00;0.00;;;;;;;15.77;100.00;101796.69;5092360;28;20085;-48
2023/08/16 02:53:42;;;;;;;0.10;0.10;;;;;;;15.72;100.00;101799.16;5093124;28;20493;-48
2023/08/16 02:56:07;;;;;;;0.03;0.03;;;;;;;15.67;100.00;101792.13;5093285;28;20180;-46
2023/08/16 02:58:32;;;;;;;0.00;0.00;;;;;;;15.59;100.00;101792.78;5092144;28;20540;-45
2023/08/16 03:00:58;;;;;;;0.03;0.03;;;;;;;15.56;100.00;101786.66;5092958;28;20428;-46
2023/08/16 03:03:23;;;;;;;0.08;0.08;;;;;;;15.50;100.00;101789.97;5092495;28;20467;-48
2023/08/16 03:05:49;;;;;;;0.10;0.10;;;;;;;15.54;100.00;101796.13;5092419;28;20533;-47
2023/08/16 03:08:14;;;;;;;0.03;0.03;;;;;;;15.51;100.00;101790.88;5092804;28;20112;-46
2023/08/16 03:10:39;;;;;;;0.08;0.08;;;;;;;15.47;100.00;101798.56;5092623;28;20103;-45
2023/08/16 03:13:05;;;;;;;1.48;0.05;;;;;;;15.51;100.00;101796.06;5092250;28;20086;-45
2023/08/16 03:15:30;;;;;;;0.10;0.10;;;;;;;15.48;100.00;101800.34;5092576;28;20460;-44
2023/08/16 03:17:56;;;;;;;0.08;0.08;;;;;;;15.50;100.00;101796.91;5092893;28;20054;-46
2023/08/16 03:20:21;;;;;;;0.00;0.00;;;;;;;15.52;100.00;101805.59;5092561;28;20533;-45
2023/08/16 03:22:46;;;;;;;0.10;0.10;;;;;;;15.56;100.00;101802.25;5092490;28;20024;-47
2023/08/16 03:25:12;;;;;;;0.10;0.10;;;;;;;15.59;100.00;101807.50;5092717;28;20042;-44
2023/08/16 03:27:38;;;;;;;0.00;0.00;;;;;;;15.61;100.00;101800.66;5091953;28;20544;-45
2023/08/16 03:30:04;;;;;;;0.10;0.10;;;;;;;15.70;100.00;101798.25;5092747;28;20030;-44
2023/08/16 03:32:29;;;;;;;0.08;0.08;;;;;;;15.76;100.00;101805.31;5092351;28;20025;-49
2023/08/16 03:34:54;;;;;;;0.10;0.10;;;;;;;15.80;100.00;101802.84;5092350;28;20036;-44
2023/08/16 03:37:20;;;;;;;0.10;0.10;;;;;;;15.80;100.00;101807.13;5092876;28;20031;-45
2023/08/16 03:39:45;;;;;;;0.00;0.00;;;;;;;15.76;100.00;101798.41;5091835;28;20430;-48
2023/08/16 03:42:10;;;;;;;0.10;0.10;;;;;;;15.72;100.00;101809.56;5092754;28;20417;-49
2023/08/16 03:44:36;;;;;;;0.08;0.08;;;;;;;15.69;100.00;101809.50;5092227;28;20579;-44
2023/08/16 03:47:01;;;;;;;0.05;0.05;;;;;;;15.72;100.00;101819.09;5091750;28;20028;-45
2023/08/16 03:49:26;;;;;;;0.10;0.10;;;;;;;15.67;100.00;101811.16;5092522;28;20023;-44
2023/08/16 03:51:51;;;;;;;0.10;0.10;;;;;;;15.65;100.00;101815.47;5094348;28;20020;-44
2023/08/16 03:54:17;;;;;;;0.00;0.00;;;;;;;15.64;100.00;101821.50;5095995;28;20115;-44
2023/08/16 03:56:42;;;;;;;0.10;0.10;;;;;;;15.62;100.00;101817.97;5096153;28;20395;-49
2023/08/16 03:59:07;;;;;;;0.10;0.10;;;;;;;15.58;100.00;101821.34;5096404;28;20495;-43
2023/08/16 04:01:33;;;;;;;0.10;0.10;;;;;;;15.55;100.00;101819.56;5095252;28;20028;-46
2023/08/16 04:03:59;;;;;;;0.10;0.10;;;;;;;15.53;100.00;101817.75;5096527;28;20099;-47
2023/08/16 04:06:24;;;;;;;0.10;0.10;;;;;;;15.54;100.00;101829.91;5095903;28;20064;-44
2023/08/16 04:08:49;;;;;;;0.10;0.10;;;;;;;15.54;100.00;101824.72;5095607;28;20324;-46
2023/08/16 04:11:15;;;;;;;0.10;0.10;;;;;;;15.51;100.00;101829.84;5096461;28;20020;-45
2023/08/16 04:13:40;;;;;;;0.10;0.10;;;;;;;15.46;100.00;101829.72;5095658;28;20016;-45
2023/08/16 04:16:05;;;;;;;0.00;0.00;;;;;;;15.42;100.00;101831.34;5095397;28;20031;-45
2023/08/16 04:18:31;;;;;;;0.00;0.00;;;;;;;15.36;100.00;101826.00;5095945;28;20098;-45
2023/08/16 04:20:56;;;;;;;0.00;0.00;;;;;;;15.27;100.00;101831.84;5095923;28;20095;-47
2023/08/16 04:23:23;;;;;;;0.00;0.00;;;;;;;15.27;100.00;101837.06;5095533;28;20090;-47
2023/08/16 04:25:48;;;;;;;0.22;0.15;;;;;;;15.22;100.00;101838.66;5096261;28;20027;-43
2023/08/16 04:28:14;;;;;;;0.00;0.00;;;;;;;15.18;100.00;101839.38;5095526;28;20040;-45
2023/08/16 04:30:39;;;;;;;0.10;0.10;;;;;;;15.07;100.00;101841.69;5094826;28;20027;-43
2023/08/16 04:33:04;;;;;;;0.00;0.00;;;;;;;15.07;100.00;101843.44;5095933;28;20063;-47
2023/08/16 04:35:30;;;;;;;0.00;0.00;;;;;;;15.06;100.00;101847.72;5095855;28;20016;-47
2023/08/16 04:37:55;;;;;;;0.10;0.10;;;;;;;15.00;100.00;101842.38;5095300;28;20415;-45
2023/08/16 04:40:20;;;;;;;0.03;0.03;;;;;;;14.97;100.00;101848.34;5095626;28;20463;-44
2023/08/16 04:42:46;;;;;;;0.10;0.10;;;;;;;14.95;100.00;101841.34;5095047;28;20062;-44
2023/08/16 04:45:12;;;;;;;0.10;0.10;;;;;;;14.92;100.00;101838.69;5094749;28;20075;-44
2023/08/16 04:47:37;;;;;;;0.10;0.10;;;;;;;14.93;100.00;101836.13;5095304;28;20028;-44
2023/08/16 04:50:06;;;;;;;0.10;0.10;;;;;;;15.00;100.00;101842.38;5094968;28;20122;-43
2023/08/16 04:52:32;;;;;;;0.10;0.10;;;;;;;14.96;100.00;101832.75;5095084;28;20463;-43
2023/08/16 04:54:58;;;;;;;0.10;0.10;;;;;;;14.96;100.00;101835.34;5095446;28;20039;-44
2023/08/16 04:57:24;;;;;;;0.10;0.10;;;;;;;14.95;100.00;101831.88;5094432;28;20024;-44
2023/08/16 04:59:50;;;;;;;0.00;0.00;;;;;;;14.99;100.00;101835.44;5095420;28;20319;-48
2023/08/16 05:02:15;;;;;;;0.10;0.10;;;;;;;15.02;100.00;101835.50;5095339;28;20020;-46
2023/08/16 05:04:40;;;;;;;0.03;0.03;;;;;;;15.05;100.00;101839.91;5093325;28;20076;-44
2023/08/16 05:07:06;;;;;;;0.10;0.10;;;;;;;15.07;100.00;101849.50;5095103;28;20062;-45
2023/08/16 05:09:31;;;;;;;0.00;0.00;;;;;;;15.09;100.00;101853.03;5094785;28;20071;-43
2023/08/16 05:11:56;;;;;;;0.10;0.10;;;;;;;15.12;100.00;101842.72;5094344;28;20052;-44
2023/08/16 05:14:22;;;;;;;0.10;0.10;;;;;;;15.14;100.00;101854.03;5095055;28;20468;-49
2023/08/16 05:16:47;;;;;;;0.10;0.10;;;;;;;15.12;100.00;101847.91;5095044;28;20028;-45
2023/08/16 05:19:13;;;;;;;0.10;0.10;;;;;;;15.09;100.00;101860.81;5094527;28;20372;-44
2023/08/16 05:21:38;;;;;;;0.10;0.10;;;;;;;15.05;100.00;101851.16;5094812;28;20103;-44
2023/08/16 05:24:04;;;;;;;0.00;0.00;;;;;;;14.99;100.00;101861.41;5094746;28;20067;-44
2023/08/16 05:26:29;;;;;;;0.10;0.10;;;;;;;14.97;100.00;101863.06;5093992;28;20024;-44
2023/08/16 05:28:55;;;;;;;0.10;0.10;;;;;;;14.92;100.00;101859.44;5094640;28;20031;-43
2023/08/16 05:31:20;;;;;;;0.10;0.10;;;;;;;14.87;100.00;101866.22;5094430;28;20024;-46
2023/08/16 05:33:45;;;;;;;0.00;0.00;;;;;;;14.93;100.00;101866.41;5093779;28;20020;-44
2023/08/16 05:36:11;;;;;;;0.10;0.10;;;;;;;14.91;100.00;101868.06;5094637;28;20031;-44
2023/08/16 05:38:36;;;;;;;0.10;0.10;;;;;;;14.92;100.00;101872.44;5094076;28;20047;-45
2023/08/16 05:41:04;;;;;;;0.10;0.10;;;;;;;14.91;100.00;101871.56;5094130;28;20475;-44
2023/08/16 05:43:33;;;;;;;0.10;0.10;;;;;;;14.94;100.00;101878.56;5093775;28;20027;-45
2023/08/16 05:45:58;;;;;;;0.10;0.10;;;;;;;15.00;100.00;101877.84;5094401;28;20027;-44
2023/08/16 05:48:23;;;;;;;0.03;0.03;;;;;;;15.08;100.00;101878.91;5093710;28;20035;-44
2023/08/16 05:50:49;;;;;;;0.10;0.10;;;;;;;15.14;100.00;101872.19;5094461;28;20028;-45
2023/08/16 05:53:14;;;;;;;0.10;0.10;;;;;;;15.20;100.00;101875.81;5094117;28;20400;-44
2023/08/16 05:55:39;;;;;;;0.10;0.10;;;;;;;15.29;100.00;101876.03;5093472;28;20027;-44
2023/08/16 05:58:05;;;;;;;0.10;0.10;;;;;;;15.40;100.00;101876.31;5094143;28;20020;-47
2023/08/16 06:00:30;;;;;;;0.10;0.10;;;;;;;15.50;100.00;101886.09;5093294;28;20020;-46
2023/08/16 06:02:56;;;;;;;0.10;0.10;;;;;;;15.59;100.00;101885.47;5094253;28;20020;-45
2023/08/16 06:05:21;;;;;;;0.10;0.10;;;;;;;15.67;100.00;101890.88;5094070;28;20024;-45
2023/08/16 06:07:46;;;;;;;0.10;0.10;;;;;;;15.75;100.00;101895.41;5092849;28;20032;-44
2023/08/16 06:10:12;;;;;;;0.10;0.10;;;;;;;15.87;100.00;101893.97;5094023;28;20110;-47
2023/08/16 06:12:38;;;;;;;0.10;0.10;;;;;;;15.94;100.00;101895.91;5093685;28;20065;-44
2023/08/16 06:15:04;;;;;;;0.20;0.10;;;;;;;16.00;100.00;101906.44;5093124;28;20046;-44
2023/08/16 06:17:29;;;;;;;0.10;0.10;;;;;;;16.02;100.00;101912.53;5093736;28;20035;-49
2023/08/16 06:19:55;;;;;;;0.10;0.10;;;;;;;16.08;100.00;101902.28;5093473;28;20020;-44
2023/08/16 06:22:20;;;;;;;0.00;0.00;;;;;;;16.07;100.00;101895.34;5093325;28;20035;-45
2023/08/16 06:24:46;;;;;;;0.03;0.03;;;;;;;16.12;100.00;101896.31;5093509;28;20028;-44
2023/08/16 06:27:12;;;;;;;0.10;0.10;;;;;;;16.16;100.00;101899.88;5093301;28;20024;-43
2023/08/16 06:29:37;;;;;;;0.10;0.10;;;;;;;16.21;100.00;101893.06;5092707;28;20480;-44
2023/08/16 06:32:03;;;;;;;0.03;0.03;;;;;;;16.26;100.00;101890.56;5093630;28;20016;-44
2023/08/16 06:34:29;;;;;;;0.10;0.10;;;;;;;16.24;100.00;101887.06;5093109;28;20035;-48
2023/08/16 06:36:54;;;;;;;0.10;0.10;;;;;;;16.21;100.00;101884.41;5092935;28;20024;-48
2023/08/16 06:39:19;;;;;;;0.10;0.10;;;;;;;16.18;100.00;101886.91;5093554;28;20027;-46
2023/08/16 06:41:45;;;;;;;0.08;0.08;;;;;;;16.13;100.00;101895.47;5092923;28;20030;-45
2023/08/16 06:44:11;;;;;;;0.10;0.10;;;;;;;16.12;100.00;101898.06;5092757;28;20109;-44
2023/08/16 06:46:36;;;;;;;0.10;0.10;;;;;;;16.12;100.00;101903.25;5093128;28;20483;-44
2023/08/16 06:49:01;;;;;;;0.10;0.10;;;;;;;16.18;100.00;101902.50;5093194;28;20110;-45
2023/08/16 06:51:27;;;;;;;0.10;0.10;;;;;;;16.27;100.00;101897.53;5092612;28;20108;-44
2023/08/16 06:53:52;;;;;;;0.10;0.10;;;;;;;16.42;100.00;101903.09;5093281;28;20117;-43
2023/08/16 06:56:17;;;;;;;0.10;0.10;;;;;;;16.54;100.00;101897.28;5093017;28;20052;-44
2023/08/16 06:58:43;;;;;;;0.10;0.10;;;;;;;16.59;100.00;101894.75;5092263;28;20034;-44
2023/08/16 07:01:09;;;;;;;0.10;0.10;;;;;;;16.69;100.00;101894.09;5093312;28;20078;-44
2023/08/16 07:03:35;;;;;;;0.10;0.10;;;;;;;16.83;100.00;101896.13;5092687;28;20077;-48
2023/08/16 07:06:00;;;;;;;0.05;0.05;;;;;;;16.93;100.00;101903.31;5092682;28;20032;-44
2023/08/16 07:08:26;;;;;;;0.10;0.10;;;;;;;17.09;100.00;101905.38;5092774;28;20039;-44
2023/08/16 07:10:52;;;;;;;0.13;0.10;;;;;;;17.25;100.00;101906.56;5092046;28;20030;-45
2023/08/16 07:13:17;;;;;;;0.10;0.10;;;;;;;17.55;100.00;101912.31;5093096;28;20047;-49
2023/08/16 07:15:43;;;;;;;0.00;0.00;;;;;;;17.78;100.00;101920.53;5092570;28;20107;-50
2023/08/16 07:18:08;;;;;;;0.00;0.00;;;;;;;17.94;100.00;101911.25;5092010;28;20539;-45
2023/08/16 07:20:33;;;;;;;0.00;0.00;;;;;;;18.00;100.00;101916.56;5092494;28;20028;-44
2023/08/16 07:22:59;;;;;;;0.10;0.10;;;;;;;18.06;100.00;101921.00;5092700;28;20040;-50
2023/08/16 07:25:27;;;;;;;0.00;0.00;;;;;;;18.19;100.00;101925.56;5090473;28;20024;-45
2023/08/16 07:27:52;;;;;;;;;;;;;;;18.29;100.00;101931.78;5095952;28;20036;-45
2023/08/16 07:30:18;;;;;;;0.00;0.00;;;;;;;18.21;100.00;101921.22;5096332;28;20023;-49
2023/08/16 07:32:44;;;;;;;0.10;0.10;;;;;;;18.25;100.00;101922.16;5095759;28;20349;-44
2023/08/16 07:35:09;;;;;;;0.10;0.10;;;;;;;18.33;100.00;101925.75;5096413;28;20042;-45
2023/08/16 07:37:35;;;;;;;0.10;0.10;;;;;;;18.41;100.00;101913.69;5095981;28;20034;-44
2023/08/16 07:40:01;;;;;;;0.00;0.00;;;;;;;18.50;100.00;101907.75;5095747;28;20016;-45
2023/08/16 07:42:26;;;;;;;0.00;0.00;;;;;;;18.62;100.00;101920.06;5095940;28;20035;-44
2023/08/16 07:44:52;;;;;;;0.10;0.10;;;;;;;18.76;100.00;101921.13;5095570;28;20036;-45
2023/08/16 07:47:17;;;;;;;0.00;0.00;;;;;;;18.83;100.00;101924.69;5095171;28;20409;-46
2023/08/16 07:49:43;;;;;;;0.00;0.00;;;;;;;18.93;100.00;101928.34;5095469;28;20036;-43
2023/08/16 07:52:09;;;;;;;0.00;0.00;;;;;;;19.05;100.00;101925.00;5094382;28;20400;-47
2023/08/16 07:54:34;;;;;;;0.00;0.00;;;;;;;19.33;100.00;101922.69;5093780;28;20111;-46
2023/08/16 07:57:00;;;;;;;0.00;0.00;;;;;;;19.44;100.00;101926.28;5096232;28;20086;-50
2023/08/16 07:59:25;;;;;;;0.00;0.00;;;;;;;19.65;100.00;101930.84;5096080;28;20028;-48
2023/08/16 08:01:52;;;;;;;0.00;0.00;;;;;;;19.76;98.24;101930.94;5095906;28;20476;-48
2023/08/16 08:04:18;;;;;;;0.00;0.00;;;;;;;19.85;96.26;101933.66;5096256;28;20429;-50
2023/08/16 08:06:44;;;;;;;0.00;0.00;;;;;;;19.93;93.61;101938.09;5095977;28;20020;-47
2023/08/16 08:09:09;;;;;;;0.00;0.00;;;;;;;19.90;92.60;101939.81;5095835;28;20549;-48
2023/08/16 08:11:37;;;;;;;0.00;0.00;;;;;;;19.95;92.70;101941.56;5095978;28;20626;-47
2023/08/16 08:14:02;;;;;;;0.00;0.00;;;;;;;20.16;94.11;101939.13;5095794;28;20107;-46
2023/08/16 08:16:27;;;;;;;0.05;0.05;;;;;;;20.29;91.71;101941.84;5096156;28;20095;-49
2023/08/16 08:18:53;;;;;;;0.00;0.00;;;;;;;20.45;90.33;101941.09;5096257;28;20168;-48
2023/08/16 08:21:18;;;;;;;0.00;0.00;;;;;;;20.62;87.75;101945.50;5095468;28;20036;-48
2023/08/16 08:23:43;;;;;;;0.00;0.00;;;;;;;20.66;87.92;101949.94;5095750;28;20027;-46
2023/08/16 08:26:12;;;;;;;0.00;0.00;;;;;;;20.72;86.81;101939.50;5095868;28;20057;-49
2023/08/16 08:28:37;;;;;;;0.00;0.00;;;;;;;20.84;87.93;101944.81;5095258;28;20055;-50
2023/08/16 08:31:03;;;;;;;0.00;0.00;;;;;;;20.91;84.22;101950.94;5096068;28;20472;-51
2023/08/16 08:33:29;;;;;;;0.00;0.00;;;;;;;20.94;83.26;101955.31;5095561;28;20085;-46
2023/08/16 08:35:55;;;;;;;0.07;0.07;;;;;;;21.10;86.57;101959.75;5095492;28;20028;-50
2023/08/16 08:38:22;;;;;;;0.00;0.00;;;;;;;21.03;81.24;101956.25;5095975;28;20039;-45
2023/08/16 08:40:47;;;;;;;0.00;0.00;;;;;;;21.06;84.27;101960.63;5095339;28;20520;-47
2023/08/16 08:43:17;;;;;;;0.00;0.00;;;;;;;21.15;85.02;101955.41;5095420;28;20055;-45
2023/08/16 08:45:46;;;;;;;0.00;0.00;;;;;;;21.03;82.28;101956.25;5095275;28;20515;-46
2023/08/16 08:48:12;;;;;;;0.00;0.00;;;;;;;21.20;83.24;101955.41;5095311;28;20485;-48
2023/08/16 08:50:40;;;;;;;0.00;0.00;;;;;;;21.23;82.55;101950.19;5094815;28;20028;-49
2023/08/16 08:53:05;;;;;;;0.00;0.00;;;;;;;21.43;83.65;101955.47;5095476;28;20036;-46
2023/08/16 08:55:32;;;;;;;0.00;0.00;;;;;;;21.63;85.96;101963.41;5095160;28;20027;-47
2023/08/16 08:58:01;;;;;;;0.00;0.00;;;;;;;21.90;85.82;101969.56;5095198;28;20034;-51
2023/08/16 09:00:31;;;;;;;0.00;0.00;;;;;;;22.12;82.80;101967.78;5095059;28;20528;-50
2023/08/16 09:02:59;;;;;;;0.00;0.00;;;;;;;22.16;76.50;101966.91;5095393;28;20020;-46
2023/08/16 09:05:25;;;;;;;0.00;0.00;;;;;;;22.26;77.55;101966.91;5094387;28;20523;-45
2023/08/16 09:07:51;;;;;;;0.00;0.00;;;;;;;22.32;77.05;101954.66;5095044;28;20107;-49
2023/08/16 09:10:17;;;;;;;0.00;0.00;;;;;;;22.44;78.02;101960.78;5094630;28;20433;-47
2023/08/16 09:12:43;;;;;;;0.00;0.00;;;;;;;22.75;76.25;101952.81;5094884;28;20032;-47
2023/08/16 09:15:09;;;;;;;0.00;0.00;;;;;;;23.01;72.79;101971.97;5095303;28;20395;-46
2023/08/16 09:17:35;;;;;;;0.00;0.00;;;;;;;23.12;75.15;101963.16;5094435;28;20032;-50
2023/08/16 09:20:00;;;;;;;0.00;0.00;;;;;;;23.02;72.05;101963.22;5095142;28;20047;-47
2023/08/16 09:22:27;;;;;;;0.00;0.00;;;;;;;23.22;72.52;101964.03;5094636;28;20032;-49
2023/08/16 09:24:56;;;;;;;0.00;0.00;;;;;;;23.20;67.89;101956.13;5094918;28;20035;-51
2023/08/16 09:27:25;;;;;;;0.00;0.00;;;;;;;23.53;69.94;101964.72;5094898;28;20039;-46
2023/08/16 09:29:56;;;;;;;0.00;0.00;;;;;;;23.63;72.21;101968.19;5094725;28;20024;-50
2023/08/16 09:32:23;;;;;;;0.00;0.00;;;;;;;24.15;68.25;101975.66;5094435;28;20099;-48
2023/08/16 09:34:48;;;;;;;0.00;0.00;;;;;;;24.02;64.94;101975.81;5094699;28;20361;-50
2023/08/16 09:37:17;;;;;;;0.00;0.00;;;;;;;24.32;60.95;101978.16;5094641;28;20486;-46
2023/08/16 09:39:43;;;;;;;0.00;0.00;;;;;;;24.46;64.32;101975.34;5093664;28;20149;-49
2023/08/16 09:42:10;;;;;;;0.00;0.00;;;;;;;24.22;59.50;101973.88;5094843;28;20020;-49
2023/08/16 09:44:37;;;;;;;0.00;0.00;;;;;;;24.19;60.30;101971.25;5093876;28;20044;-46
2023/08/16 09:47:15;;;;;;;0.00;0.00;;;;;;;24.22;65.11;101965.97;5093915;28;20103;-49
2023/08/16 09:49:43;;;;;;;0.00;0.00;;;;;;;24.21;63.03;101966.84;5093756;28;20032;-46
2023/08/16 09:52:10;;;;;;;0.00;0.00;;;;;;;24.57;60.11;101972.63;5094309;28;20074;-51
2023/08/16 09:54:36;;;;;;;0.00;0.00;;;;;;;24.96;65.00;101964.28;5093518;28;20050;-48
2023/08/16 09:57:01;;;;;;;0.00;0.00;;;;;;;24.98;59.75;101963.38;5094190;28;20024;-50
2023/08/16 09:59:27;;;;;;;0.00;0.00;;;;;;;25.23;61.43;101968.31;5093715;28;20047;-46
2023/08/16 10:01:54;;;;;;;0.00;0.00;;;;;;;25.12;58.75;101970.22;5093682;28;20028;-47
2023/08/16 10:04:20;;;;;;;0.00;0.00;;;;;;;24.98;58.96;101967.75;5094296;28;20024;-51
2023/08/16 10:06:46;;;;;;;0.00;0.00;;;;;;;25.17;56.90;101968.41;5093346;28;20098;-48
2023/08/16 10:09:12;;;;;;;0.00;0.00;;;;;;;25.31;57.05;101971.72;5094183;28;20353;-46
2023/08/16 10:11:39;;;;;;;0.00;0.00;;;;;;;25.31;57.72;101962.94;5093569;28;20028;-46
2023/08/16 10:14:08;;;;;;;0.00;0.00;;;;;;;25.15;55.21;101965.78;5093421;28;20036;-47
2023/08/16 10:16:38;;;;;;;0.00;0.00;;;;;;;25.13;58.57;101961.41;5093604;28;20278;-50
2023/08/16 10:19:07;;;;;;;0.00;0.00;;;;;;;24.87;60.72;101953.84;5093754;28;20114;-47
2023/08/16 10:21:37;;;;;;;0.00;0.00;;;;;;;24.68;60.79;101959.34;5093026;28;20016;-46
2023/08/16 10:24:05;;;;;;;0.00;0.00;;;;;;;24.51;59.79;101948.97;5093905;28;20371;-48
2023/08/16 10:26:32;;;;;;;0.00;0.00;;;;;;;24.49;59.82;101950.72;5093269;28;20471;-49
2023/08/16 10:29:05;;;;;;;0.00;0.00;;;;;;;24.43;57.41;101954.31;5093087;28;20024;-46
2023/08/16 10:31:36;;;;;;;0.00;0.00;;;;;;;24.25;60.83;101959.78;5093631;28;20081;-48
2023/08/16 10:34:04;;;;;;;0.00;0.00;;;;;;;24.20;61.52;101962.47;5093692;28;20028;-49
2023/08/16 10:36:30;;;;;;;0.00;0.00;;;;;;;23.93;61.50;101955.69;5092674;28;20353;-47
2023/08/16 10:38:56;;;;;;;0.00;0.00;;;;;;;24.09;61.77;101964.31;5093773;28;20024;-46
2023/08/16 10:41:22;;;;;;;0.00;0.00;;;;;;;24.14;62.80;101962.50;5093179;28;20024;-46
2023/08/16 10:43:49;;;;;;;0.00;0.00;;;;;;;24.36;62.95;101959.66;5092681;28;20487;-45
2023/08/16 10:46:27;;;;;;;;;;;;;;;24.69;65.57;101961.09;5093888;28;20414;-47
2023/08/16 10:49:00;;;;;;;0.00;0.00;;;;;;;24.68;62.00;101953.22;5092738;28;19973;-46
2023/08/16 10:51:26;;;;;;;0.00;0.00;;;;;;;25.18;61.04;101956.06;5093151;28;20188;-49
2023/08/16 10:53:56;;;;;;;0.00;0.00;;;;;;;25.96;56.21;101954.00;5092982;28;20471;-50
2023/08/16 10:56:22;;;;;;;0.00;0.00;;;;;;;26.71;53.33;101956.19;5093130;28;20032;-47
2023/08/16 10:58:49;;;;;;;0.00;0.00;;;;;;;26.59;52.60;101950.22;5093360;28;20014;-51
2023/08/16 11:01:15;;;;;;;;;;;;;;;27.10;57.95;101948.31;5092552;28;20149;-46
2023/08/16 11:03:43;;;;;;;0.00;0.00;;;;;;;26.19;53.20;101951.00;5092559;28;19945;-45
2023/08/16 11:06:10;;;;;;;0.00;0.00;;;;;;;25.71;54.82;101962.34;5093069;28;20031;-48
2023/08/16 11:08:42;;;;;;;;;;;;;;;26.22;59.31;101958.88;5092815;28;20482;-48
2023/08/16 11:11:09;;;;;;;0.00;0.00;;;;;;;25.63;56.69;101957.19;5092716;28;19912;-46
2023/08/16 11:13:34;;;;;;;0.00;0.00;;;;;;;25.33;60.44;101953.22;5092782;28;20016;-46
2023/08/16 11:16:00;;;;;;;0.00;0.00;;;;;;;25.18;59.51;101956.97;5092878;28;20056;-46